sensor_id;sensor_type;location;lat;lon;timestamp;pressure;altitude;pressure_sealevel;temperature;humidity
74834;BME280;63361;52.384;20.930;2023-12-29T00:01:17;100303.03;;;2.75;100.00
74834;BME280;63361;52.384;20.930;2023-12-29T00:03:43;100282.44;;;2.59;100.00
74834;BME280;63361;52.384;20.930;2023-12-29T00:06:09;100278.81;;;2.65;100.00
74834;BME280;63361;52.384;20.930;2023-12-29T00:08:36;100284.38;;;2.75;100.00
74834;BME280;63361;52.384;20.930;2023-12-29T00:11:01;100271.06;;;2.52;100.00
74834;BME280;63361;52.384;20.930;2023-12-29T00:13:27;100280.34;;;2.73;100.00
74834;BME280;63361;52.384;20.930;2023-12-29T00:15:53;100282.28;;;2.77;100.00
74834;BME280;63361;52.384;20.930;2023-12-29T00:18:19;100274.31;;;2.66;100.00
74834;BME280;63361;52.384;20.930;2023-12-29T00:20:44;100276.50;;;2.69;100.00
74834;BME280;63361;52.384;20.930;2023-12-29T00:23:09;100273.03;;;2.57;100.00
74834;BME280;63361;52.384;20.930;2023-12-29T00:25:38;100275.03;;;2.73;100.00
74834;BME280;63361;52.384;20.930;2023-12-29T00:28:04;100279.41;;;2.79;100.00
74834;BME280;63361;52.384;20.930;2023-12-29T00:30:30;100282.53;;;2.76;100.00
74834;BME280;63361;52.384;20.930;2023-12-29T00:32:55;100277.91;;;2.71;100.00
74834;BME280;63361;52.384;20.930;2023-12-29T00:35:21;100275.59;;;2.75;100.00
74834;BME280;63361;52.384;20.930;2023-12-29T00:37:46;100257.72;;;2.64;100.00
74834;BME280;63361;52.384;20.930;2023-12-29T00:40:12;100273.50;;;2.77;100.00
74834;BME280;63361;52.384;20.930;2023-12-29T00:42:37;100272.00;;;2.69;100.00
74834;BME280;63361;52.384;20.930;2023-12-29T00:45:03;100283.00;;;2.73;100.00
74834;BME280;63361;52.384;20.930;2023-12-29T00:47:29;100269.09;;;2.59;100.00
74834;BME280;63361;52.384;20.930;2023-12-29T00:49:54;100259.34;;;2.41;100.00
74834;BME280;63361;52.384;20.930;2023-12-29T00:52:20;100250.66;;;2.34;100.00
74834;BME280;63361;52.384;20.930;2023-12-29T00:54:45;100274.53;;;2.41;100.00
74834;BME280;63361;52.384;20.930;2023-12-29T00:57:10;100278.47;;;2.50;100.00
74834;BME280;63361;52.384;20.930;2023-12-29T00:59:37;100277.63;;;2.38;100.00
74834;BME280;63361;52.384;20.930;2023-12-29T01:02:05;100272.41;;;2.31;100.00
74834;BME280;63361;52.384;20.930;2023-12-29T01:04:30;100276.69;;;2.32;100.00
74834;BME280;63361;52.384;20.930;2023-12-29T01:06:55;100250.28;;;2.19;100.00
74834;BME280;63361;52.384;20.930;2023-12-29T01:09:21;100264.63;;;2.30;100.00
74834;BME280;63361;52.384;20.930;2023-12-29T01:11:46;100264.41;;;2.31;100.00
74834;BME280;63361;52.384;20.930;2023-12-29T01:14:11;100265.72;;;2.40;100.00
74834;BME280;63361;52.384;20.930;2023-12-29T01:16:37;100261.66;;;2.61;100.00
74834;BME280;63361;52.384;20.930;2023-12-29T01:19:02;100244.31;;;2.59;100.00
74834;BME280;63361;52.384;20.930;2023-12-29T01:21:27;100249.06;;;2.57;100.00
74834;BME280;63361;52.384;20.930;2023-12-29T01:23:53;100233.84;;;2.45;100.00
74834;BME280;63361;52.384;20.930;2023-12-29T01:26:18;100232.72;;;2.41;100.00
74834;BME280;63361;52.384;20.930;2023-12-29T01:28:43;100237.19;;;2.29;100.00
74834;BME280;63361;52.384;20.930;2023-12-29T01:31:09;100241.97;;;2.27;100.00
74834;BME280;63361;52.384;20.930;2023-12-29T01:33:36;100233.13;;;2.15;100.00
74834;BME280;63361;52.384;20.930;2023-12-29T01:36:01;100240.78;;;2.23;100.00
74834;BME280;63361;52.384;20.930;2023-12-29T01:38:27;100219.56;;;2.05;100.00
74834;BME280;63361;52.384;20.930;2023-12-29T01:40:52;100228.97;;;2.07;100.00
74834;BME280;63361;52.384;20.930;2023-12-29T01:43:17;100201.38;;;1.90;100.00
74834;BME280;63361;52.384;20.930;2023-12-29T01:45:42;100217.13;;;1.92;100.00
74834;BME280;63361;52.384;20.930;2023-12-29T01:48:08;100212.16;;;1.95;100.00
74834;BME280;63361;52.384;20.930;2023-12-29T01:50:34;100210.63;;;1.88;100.00
74834;BME280;63361;52.384;20.930;2023-12-29T01:53:01;100202.03;;;1.86;100.00
74834;BME280;63361;52.384;20.930;2023-12-29T01:55:29;100197.59;;;1.98;100.00
74834;BME280;63361;52.384;20.930;2023-12-29T01:57:55;100195.25;;;2.01;100.00
74834;BME280;63361;52.384;20.930;2023-12-29T02:00:21;100191.19;;;1.99;100.00
74834;BME280;63361;52.384;20.930;2023-12-29T02:02:47;100192.94;;;1.93;100.00
74834;BME280;63361;52.384;20.930;2023-12-29T02:05:16;100189.44;;;1.81;100.00
74834;BME280;63361;52.384;20.930;2023-12-29T02:07:42;100193.25;;;1.85;100.00
74834;BME280;63361;52.384;20.930;2023-12-29T02:10:08;100180.97;;;1.72;100.00
74834;BME280;63361;52.384;20.930;2023-12-29T02:12:35;100180.16;;;1.72;100.00
74834;BME280;63361;52.384;20.930;2023-12-29T02:15:03;100188.28;;;1.77;100.00
74834;BME280;63361;52.384;20.930;2023-12-29T02:17:38;100140.91;;;1.56;100.00
74834;BME280;63361;52.384;20.930;2023-12-29T02:20:05;100141.47;;;1.58;100.00
74834;BME280;63361;52.384;20.930;2023-12-29T02:22:32;100162.47;;;1.77;100.00
74834;BME280;63361;52.384;20.930;2023-12-29T02:24:57;100144.66;;;1.66;100.00
74834;BME280;63361;52.384;20.930;2023-12-29T02:30:33;100178.88;;;1.74;100.00
74834;BME280;63361;52.384;20.930;2023-12-29T02:33:07;100154.41;;;1.96;100.00
74834;BME280;63361;52.384;20.930;2023-12-29T02:35:38;100165.44;;;1.69;100.00
74834;BME280;63361;52.384;20.930;2023-12-29T02:38:04;100146.00;;;1.57;100.00
74834;BME280;63361;52.384;20.930;2023-12-29T02:40:29;100166.09;;;1.53;100.00
74834;BME280;63361;52.384;20.930;2023-12-29T02:42:55;100132.00;;;1.50;100.00
74834;BME280;63361;52.384;20.930;2023-12-29T02:45:21;100152.41;;;1.80;100.00
74834;BME280;63361;52.384;20.930;2023-12-29T02:47:47;100143.31;;;1.57;100.00
74834;BME280;63361;52.384;20.930;2023-12-29T02:50:13;100157.97;;;1.78;100.00
74834;BME280;63361;52.384;20.930;2023-12-29T02:52:38;100159.22;;;1.64;100.00
74834;BME280;63361;52.384;20.930;2023-12-29T02:55:04;100160.13;;;1.69;100.00
74834;BME280;63361;52.384;20.930;2023-12-29T02:57:29;100155.69;;;1.93;100.00
74834;BME280;63361;52.384;20.930;2023-12-29T02:59:55;100147.31;;;1.78;100.00
74834;BME280;63361;52.384;20.930;2023-12-29T03:02:21;100145.72;;;1.89;100.00
74834;BME280;63361;52.384;20.930;2023-12-29T03:04:46;100150.94;;;1.95;100.00
74834;BME280;63361;52.384;20.930;2023-12-29T03:07:11;100146.38;;;1.84;100.00
74834;BME280;63361;52.384;20.930;2023-12-29T03:09:37;100141.25;;;2.13;100.00
74834;BME280;63361;52.384;20.930;2023-12-29T03:12:02;100149.31;;;2.18;100.00
74834;BME280;63361;52.384;20.930;2023-12-29T03:14:28;100144.94;;;2.23;100.00
74834;BME280;63361;52.384;20.930;2023-12-29T03:16:53;100131.63;;;2.23;100.00
74834;BME280;63361;52.384;20.930;2023-12-29T03:19:18;100146.44;;;2.31;100.00
74834;BME280;63361;52.384;20.930;2023-12-29T03:21:44;100133.94;;;2.20;100.00
74834;BME280;63361;52.384;20.930;2023-12-29T03:24:09;100134.84;;;2.37;100.00
74834;BME280;63361;52.384;20.930;2023-12-29T03:26:34;100117.03;;;2.37;100.00
74834;BME280;63361;52.384;20.930;2023-12-29T03:29:00;100137.28;;;2.38;100.00
74834;BME280;63361;52.384;20.930;2023-12-29T03:31:25;100123.03;;;2.44;100.00
74834;BME280;63361;52.384;20.930;2023-12-29T03:33:50;100114.38;;;2.37;100.00
74834;BME280;63361;52.384;20.930;2023-12-29T03:36:15;100121.41;;;2.55;100.00
74834;BME280;63361;52.384;20.930;2023-12-29T03:38:41;100128.34;;;2.44;100.00
74834;BME280;63361;52.384;20.930;2023-12-29T03:41:06;100121.53;;;2.37;100.00
74834;BME280;63361;52.384;20.930;2023-12-29T03:43:32;100130.22;;;2.44;100.00
74834;BME280;63361;52.384;20.930;2023-12-29T03:45:57;100126.59;;;2.62;100.00
74834;BME280;63361;52.384;20.930;2023-12-29T03:48:23;100122.78;;;2.46;100.00
74834;BME280;63361;52.384;20.930;2023-12-29T03:50:48;100139.00;;;2.44;100.00
74834;BME280;63361;52.384;20.930;2023-12-29T03:53:14;100124.81;;;2.27;100.00
74834;BME280;63361;52.384;20.930;2023-12-29T03:55:40;100113.66;;;2.42;100.00
74834;BME280;63361;52.384;20.930;2023-12-29T03:58:06;100117.03;;;2.37;100.00
74834;BME280;63361;52.384;20.930;2023-12-29T04:00:31;100118.41;;;2.52;100.00
74834;BME280;63361;52.384;20.930;2023-12-29T04:02:57;100115.28;;;2.43;100.00
74834;BME280;63361;52.384;20.930;2023-12-29T04:05:22;100109.84;;;2.38;100.00
74834;BME280;63361;52.384;20.930;2023-12-29T04:07:47;100124.66;;;2.34;100.00
74834;BME280;63361;52.384;20.930;2023-12-29T04:10:13;100108.47;;;2.24;100.00
74834;BME280;63361;52.384;20.930;2023-12-29T04:12:38;100105.69;;;2.42;100.00
74834;BME280;63361;52.384;20.930;2023-12-29T04:15:04;100110.06;;;2.60;100.00
74834;BME280;63361;52.384;20.930;2023-12-29T04:17:29;100106.66;;;2.64;100.00
74834;BME280;63361;52.384;20.930;2023-12-29T04:19:55;100105.53;;;2.48;100.00
74834;BME280;63361;52.384;20.930;2023-12-29T04:22:21;100098.25;;;2.32;100.00
74834;BME280;63361;52.384;20.930;2023-12-29T04:24:46;100096.75;;;2.48;100.00
74834;BME280;63361;52.384;20.930;2023-12-29T04:27:11;100086.81;;;2.32;100.00
74834;BME280;63361;52.384;20.930;2023-12-29T04:29:37;100091.41;;;2.48;100.00
74834;BME280;63361;52.384;20.930;2023-12-29T04:32:02;100085.66;;;2.39;100.00
74834;BME280;63361;52.384;20.930;2023-12-29T04:34:27;100096.88;;;2.41;100.00
74834;BME280;63361;52.384;20.930;2023-12-29T04:36:53;100085.50;;;2.46;100.00
74834;BME280;63361;52.384;20.930;2023-12-29T04:39:18;100079.97;;;2.36;100.00
74834;BME280;63361;52.384;20.930;2023-12-29T04:41:43;100082.66;;;2.24;100.00
74834;BME280;63361;52.384;20.930;2023-12-29T04:44:09;100089.16;;;2.28;100.00
74834;BME280;63361;52.384;20.930;2023-12-29T04:46:35;100092.47;;;2.35;100.00
74834;BME280;63361;52.384;20.930;2023-12-29T04:49:01;100072.69;;;2.31;100.00
74834;BME280;63361;52.384;20.930;2023-12-29T04:51:26;100077.44;;;2.41;100.00
74834;BME280;63361;52.384;20.930;2023-12-29T04:53:51;100084.84;;;2.39;100.00
74834;BME280;63361;52.384;20.930;2023-12-29T04:56:17;100089.59;;;2.37;100.00
74834;BME280;63361;52.384;20.930;2023-12-29T04:58:42;100089.00;;;2.35;100.00
74834;BME280;63361;52.384;20.930;2023-12-29T05:01:07;100091.00;;;2.28;100.00
74834;BME280;63361;52.384;20.930;2023-12-29T05:03:33;100082.28;;;2.32;100.00
74834;BME280;63361;52.384;20.930;2023-12-29T05:05:59;100080.81;;;2.25;100.00
74834;BME280;63361;52.384;20.930;2023-12-29T05:08:24;100075.94;;;2.22;100.00
74834;BME280;63361;52.384;20.930;2023-12-29T05:10:49;100082.19;;;2.16;100.00
74834;BME280;63361;52.384;20.930;2023-12-29T05:13:15;100093.63;;;2.39;100.00
74834;BME280;63361;52.384;20.930;2023-12-29T05:15:40;100082.28;;;2.44;100.00
74834;BME280;63361;52.384;20.930;2023-12-29T05:18:05;100076.47;;;2.59;100.00
74834;BME280;63361;52.384;20.930;2023-12-29T05:20:31;100085.66;;;2.79;100.00
74834;BME280;63361;52.384;20.930;2023-12-29T05:22:56;100089.31;;;3.02;100.00
74834;BME280;63361;52.384;20.930;2023-12-29T05:25:21;100078.88;;;3.00;100.00
74834;BME280;63361;52.384;20.930;2023-12-29T05:27:47;100082.97;;;3.20;100.00
74834;BME280;63361;52.384;20.930;2023-12-29T05:30:13;100087.28;;;3.09;100.00
74834;BME280;63361;52.384;20.930;2023-12-29T05:32:38;100077.66;;;3.08;100.00
74834;BME280;63361;52.384;20.930;2023-12-29T05:35:04;100067.47;;;2.88;100.00
74834;BME280;63361;52.384;20.930;2023-12-29T05:37:29;100064.28;;;2.63;100.00
74834;BME280;63361;52.384;20.930;2023-12-29T05:39:54;100070.41;;;2.75;100.00
74834;BME280;63361;52.384;20.930;2023-12-29T05:42:20;100074.13;;;2.62;100.00
74834;BME280;63361;52.384;20.930;2023-12-29T05:44:45;100049.03;;;2.46;100.00
74834;BME280;63361;52.384;20.930;2023-12-29T05:47:11;100068.25;;;2.89;100.00
74834;BME280;63361;52.384;20.930;2023-12-29T05:49:37;100059.91;;;3.13;100.00
74834;BME280;63361;52.384;20.930;2023-12-29T05:52:07;100061.50;;;2.98;100.00
74834;BME280;63361;52.384;20.930;2023-12-29T05:54:33;100068.38;;;3.10;100.00
74834;BME280;63361;52.384;20.930;2023-12-29T05:56:59;100066.63;;;3.16;100.00
74834;BME280;63361;52.384;20.930;2023-12-29T05:59:24;100054.16;;;3.33;100.00
74834;BME280;63361;52.384;20.930;2023-12-29T06:01:49;100054.41;;;3.48;100.00
74834;BME280;63361;52.384;20.930;2023-12-29T06:04:15;100037.94;;;3.23;100.00
74834;BME280;63361;52.384;20.930;2023-12-29T06:06:43;100046.53;;;3.42;100.00
74834;BME280;63361;52.384;20.930;2023-12-29T06:09:09;100032.88;;;3.55;100.00
74834;BME280;63361;52.384;20.930;2023-12-29T06:11:34;100033.69;;;3.72;100.00
74834;BME280;63361;52.384;20.930;2023-12-29T06:14:00;100037.63;;;3.86;100.00
74834;BME280;63361;52.384;20.930;2023-12-29T06:16:25;100031.66;;;4.18;100.00
74834;BME280;63361;52.384;20.930;2023-12-29T06:18:52;100029.00;;;4.18;100.00
74834;BME280;63361;52.384;20.930;2023-12-29T06:21:17;100020.28;;;4.06;100.00
74834;BME280;63361;52.384;20.930;2023-12-29T06:23:42;100029.00;;;4.18;100.00
74834;BME280;63361;52.384;20.930;2023-12-29T06:26:18;100015.19;;;4.04;100.00
74834;BME280;63361;52.384;20.930;2023-12-29T06:28:45;100016.56;;;4.07;100.00
74834;BME280;63361;52.384;20.930;2023-12-29T06:31:10;100010.78;;;4.15;100.00
74834;BME280;63361;52.384;20.930;2023-12-29T06:33:36;100036.59;;;4.26;100.00
74834;BME280;63361;52.384;20.930;2023-12-29T06:36:02;100007.81;;;4.11;100.00
74834;BME280;63361;52.384;20.930;2023-12-29T06:38:27;100015.50;;;4.30;100.00
74834;BME280;63361;52.384;20.930;2023-12-29T06:40:52;100006.59;;;4.41;100.00
74834;BME280;63361;52.384;20.930;2023-12-29T06:43:18;100016.16;;;4.37;100.00
74834;BME280;63361;52.384;20.930;2023-12-29T06:45:43;100026.63;;;4.43;100.00
74834;BME280;63361;52.384;20.930;2023-12-29T06:48:08;100028.88;;;4.51;100.00
74834;BME280;63361;52.384;20.930;2023-12-29T06:50:33;100017.03;;;4.42;100.00
74834;BME280;63361;52.384;20.930;2023-12-29T06:52:59;100010.59;;;4.43;100.00
74834;BME280;63361;52.384;20.930;2023-12-29T06:55:25;100022.72;;;4.73;100.00
74834;BME280;63361;52.384;20.930;2023-12-29T06:57:50;100021.22;;;4.82;100.00
74834;BME280;63361;52.384;20.930;2023-12-29T07:00:16;99990.84;;;4.66;100.00
74834;BME280;63361;52.384;20.930;2023-12-29T07:02:41;100014.97;;;4.71;100.00
74834;BME280;63361;52.384;20.930;2023-12-29T07:05:07;100017.38;;;4.73;100.00
74834;BME280;63361;52.384;20.930;2023-12-29T07:07:36;99983.13;;;4.70;100.00
74834;BME280;63361;52.384;20.930;2023-12-29T07:10:03;100008.34;;;4.79;100.00
74834;BME280;63361;52.384;20.930;2023-12-29T07:12:28;100006.63;;;4.94;100.00
74834;BME280;63361;52.384;20.930;2023-12-29T07:14:54;99997.75;;;4.89;100.00
74834;BME280;63361;52.384;20.930;2023-12-29T07:17:19;99994.38;;;4.99;100.00
74834;BME280;63361;52.384;20.930;2023-12-29T07:19:44;99992.03;;;5.07;100.00
74834;BME280;63361;52.384;20.930;2023-12-29T07:22:10;99985.63;;;5.08;100.00
74834;BME280;63361;52.384;20.930;2023-12-29T07:24:35;99973.19;;;4.92;100.00
74834;BME280;63361;52.384;20.930;2023-12-29T07:27:01;99978.53;;;4.92;100.00
74834;BME280;63361;52.384;20.930;2023-12-29T07:29:26;99986.34;;;4.99;100.00
74834;BME280;63361;52.384;20.930;2023-12-29T07:31:52;99996.13;;;5.15;100.00
74834;BME280;63361;52.384;20.930;2023-12-29T07:34:18;99984.50;;;4.99;100.00
74834;BME280;63361;52.384;20.930;2023-12-29T07:36:43;99986.66;;;5.02;100.00
74834;BME280;63361;52.384;20.930;2023-12-29T07:39:09;99997.81;;;4.94;100.00
74834;BME280;63361;52.384;20.930;2023-12-29T07:41:39;99989.53;;;4.95;100.00
74834;BME280;63361;52.384;20.930;2023-12-29T07:44:06;99997.13;;;5.09;100.00
74834;BME280;63361;52.384;20.930;2023-12-29T07:46:31;99978.78;;;5.17;100.00
74834;BME280;63361;52.384;20.930;2023-12-29T07:48:57;99978.03;;;5.27;100.00
74834;BME280;63361;52.384;20.930;2023-12-29T07:51:22;99981.13;;;5.46;100.00
74834;BME280;63361;52.384;20.930;2023-12-29T07:53:47;99988.91;;;5.47;100.00
74834;BME280;63361;52.384;20.930;2023-12-29T07:56:13;99982.44;;;5.43;100.00
74834;BME280;63361;52.384;20.930;2023-12-29T07:58:38;99973.16;;;5.56;100.00
74834;BME280;63361;52.384;20.930;2023-12-29T08:01:04;99986.31;;;5.57;100.00
74834;BME280;63361;52.384;20.930;2023-12-29T08:03:29;99965.63;;;5.48;100.00
74834;BME280;63361;52.384;20.930;2023-12-29T08:05:54;99959.50;;;5.52;100.00
74834;BME280;63361;52.384;20.930;2023-12-29T08:08:19;99962.41;;;5.51;100.00
74834;BME280;63361;52.384;20.930;2023-12-29T08:10:45;99962.47;;;5.56;100.00
74834;BME280;63361;52.384;20.930;2023-12-29T08:13:10;99959.03;;;5.65;100.00
74834;BME280;63361;52.384;20.930;2023-12-29T08:15:35;99976.00;;;5.76;100.00
74834;BME280;63361;52.384;20.930;2023-12-29T08:18:02;99959.94;;;5.76;100.00
74834;BME280;63361;52.384;20.930;2023-12-29T08:20:28;99950.84;;;5.82;100.00
74834;BME280;63361;52.384;20.930;2023-12-29T08:22:53;99958.97;;;5.92;100.00
74834;BME280;63361;52.384;20.930;2023-12-29T08:25:19;99952.88;;;6.07;100.00
74834;BME280;63361;52.384;20.930;2023-12-29T08:27:44;99958.53;;;6.16;100.00
74834;BME280;63361;52.384;20.930;2023-12-29T08:30:10;99951.66;;;6.35;100.00
74834;BME280;63361;52.384;20.930;2023-12-29T08:32:35;99957.97;;;7.27;100.00
74834;BME280;63361;52.384;20.930;2023-12-29T08:35:01;99974.91;;;8.42;100.00
74834;BME280;63361;52.384;20.930;2023-12-29T08:37:26;99972.88;;;8.73;100.00
74834;BME280;63361;52.384;20.930;2023-12-29T08:39:52;99953.19;;;8.83;100.00
74834;BME280;63361;52.384;20.930;2023-12-29T08:42:17;99962.81;;;8.89;100.00
74834;BME280;63361;52.384;20.930;2023-12-29T08:44:43;99989.06;;;9.12;100.00
74834;BME280;63361;52.384;20.930;2023-12-29T08:47:08;99969.09;;;8.79;100.00
74834;BME280;63361;52.384;20.930;2023-12-29T08:49:37;99950.88;;;8.66;100.00
74834;BME280;63361;52.384;20.930;2023-12-29T08:52:04;99963.97;;;9.17;100.00
74834;BME280;63361;52.384;20.930;2023-12-29T08:54:29;99969.16;;;9.42;100.00
74834;BME280;63361;52.384;20.930;2023-12-29T08:56:54;99954.13;;;9.65;100.00
74834;BME280;63361;52.384;20.930;2023-12-29T08:59:20;99968.44;;;9.90;100.00
74834;BME280;63361;52.384;20.930;2023-12-29T09:01:45;99960.41;;;9.84;100.00
74834;BME280;63361;52.384;20.930;2023-12-29T09:04:10;99939.91;;;9.31;100.00
74834;BME280;63361;52.384;20.930;2023-12-29T09:06:36;99954.06;;;9.46;100.00
74834;BME280;63361;52.384;20.930;2023-12-29T09:09:01;99957.16;;;10.35;100.00
74834;BME280;63361;52.384;20.930;2023-12-29T09:11:26;99951.06;;;10.48;100.00
74834;BME280;63361;52.384;20.930;2023-12-29T09:13:52;99954.97;;;10.37;100.00
74834;BME280;63361;52.384;20.930;2023-12-29T09:16:17;99953.91;;;10.38;100.00
74834;BME280;63361;52.384;20.930;2023-12-29T09:18:42;99946.75;;;10.00;100.00
74834;BME280;63361;52.384;20.930;2023-12-29T09:21:08;99941.97;;;10.20;100.00
74834;BME280;63361;52.384;20.930;2023-12-29T09:23:33;99946.00;;;9.41;100.00
74834;BME280;63361;52.384;20.930;2023-12-29T09:25:59;99936.78;;;10.00;100.00
74834;BME280;63361;52.384;20.930;2023-12-29T09:28:24;99941.72;;;10.97;100.00
74834;BME280;63361;52.384;20.930;2023-12-29T09:30:50;99941.63;;;11.02;100.00
74834;BME280;63361;52.384;20.930;2023-12-29T09:33:15;99924.19;;;10.19;100.00
74834;BME280;63361;52.384;20.930;2023-12-29T09:35:41;99938.63;;;10.05;100.00
74834;BME280;63361;52.384;20.930;2023-12-29T09:38:06;99935.88;;;10.34;100.00
74834;BME280;63361;52.384;20.930;2023-12-29T09:40:32;99953.72;;;10.30;100.00
74834;BME280;63361;52.384;20.930;2023-12-29T09:42:58;99906.13;;;10.57;100.00
74834;BME280;63361;52.384;20.930;2023-12-29T09:45:24;99951.06;;;10.25;100.00
74834;BME280;63361;52.384;20.930;2023-12-29T09:47:52;99938.34;;;10.06;100.00
74834;BME280;63361;52.384;20.930;2023-12-29T09:50:21;99930.06;;;9.98;100.00
74834;BME280;63361;52.384;20.930;2023-12-29T09:52:48;99943.88;;;10.20;100.00
74834;BME280;63361;52.384;20.930;2023-12-29T09:55:15;99934.41;;;10.17;100.00
74834;BME280;63361;52.384;20.930;2023-12-29T09:57:40;99931.94;;;9.97;100.00
74834;BME280;63361;52.384;20.930;2023-12-29T10:00:10;99910.06;;;9.51;100.00
74834;BME280;63361;52.384;20.930;2023-12-29T10:02:36;99927.28;;;9.26;100.00
74834;BME280;63361;52.384;20.930;2023-12-29T10:05:03;99925.63;;;9.59;100.00
74834;BME280;63361;52.384;20.930;2023-12-29T10:07:31;99907.09;;;9.52;100.00
74834;BME280;63361;52.384;20.930;2023-12-29T10:09:58;99928.84;;;9.61;100.00
74834;BME280;63361;52.384;20.930;2023-12-29T10:12:34;99920.06;;;9.50;100.00
74834;BME280;63361;52.384;20.930;2023-12-29T10:22:51;99908.56;;;9.11;100.00
74834;BME280;63361;52.384;20.930;2023-12-29T10:25:19;99904.78;;;9.12;100.00
74834;BME280;63361;52.384;20.930;2023-12-29T10:27:45;99923.97;;;9.34;100.00
74834;BME280;63361;52.384;20.930;2023-12-29T10:30:11;99920.75;;;9.32;100.00
74834;BME280;63361;52.384;20.930;2023-12-29T10:32:37;99904.56;;;10.09;100.00
74834;BME280;63361;52.384;20.930;2023-12-29T10:35:11;99903.56;;;9.57;100.00
74834;BME280;63361;52.384;20.930;2023-12-29T10:37:37;99844.63;;;9.50;100.00
74834;BME280;63361;52.384;20.930;2023-12-29T10:40:04;99874.53;;;10.20;100.00
74834;BME280;63361;52.384;20.930;2023-12-29T10:42:30;99921.97;;;11.15;100.00
74834;BME280;63361;52.384;20.930;2023-12-29T10:45:09;99931.72;;;10.98;100.00
74834;BME280;63361;52.384;20.930;2023-12-29T10:47:35;99905.00;;;9.97;100.00
74834;BME280;63361;52.384;20.930;2023-12-29T10:50:02;99921.63;;;9.57;100.00
74834;BME280;63361;52.384;20.930;2023-12-29T10:52:31;99924.69;;;9.45;100.00
74834;BME280;63361;52.384;20.930;2023-12-29T10:55:08;99926.09;;;10.14;100.00
74834;BME280;63361;52.384;20.930;2023-12-29T10:57:34;99906.63;;;9.74;100.00
74834;BME280;63361;52.384;20.930;2023-12-29T10:59:59;99927.91;;;9.76;100.00
74834;BME280;63361;52.384;20.930;2023-12-29T11:02:26;99916.97;;;9.33;100.00
74834;BME280;63361;52.384;20.930;2023-12-29T11:05:01;99917.28;;;8.98;100.00
74834;BME280;63361;52.384;20.930;2023-12-29T11:07:31;99917.31;;;8.93;100.00
74834;BME280;63361;52.384;20.930;2023-12-29T11:10:00;99913.34;;;8.85;100.00
74834;BME280;63361;52.384;20.930;2023-12-29T11:12:29;99891.13;;;8.69;100.00
74834;BME280;63361;52.384;20.930;2023-12-29T11:14:55;99890.06;;;8.70;100.00
74834;BME280;63361;52.384;20.930;2023-12-29T11:17:21;99886.03;;;8.68;100.00
74834;BME280;63361;52.384;20.930;2023-12-29T11:19:48;99902.16;;;8.68;100.00
74834;BME280;63361;52.384;20.930;2023-12-29T11:22:14;99891.47;;;8.58;100.00
74834;BME280;63361;52.384;20.930;2023-12-29T11:24:40;99895.47;;;8.60;100.00
74834;BME280;63361;52.384;20.930;2023-12-29T11:27:06;99887.75;;;8.54;100.00
74834;BME280;63361;52.384;20.930;2023-12-29T11:29:32;99880.78;;;8.48;100.00
74834;BME280;63361;52.384;20.930;2023-12-29T11:32:00;99860.94;;;8.38;100.00
74834;BME280;63361;52.384;20.930;2023-12-29T11:34:39;99867.41;;;8.32;100.00
74834;BME280;63361;52.384;20.930;2023-12-29T11:37:21;99856.13;;;8.25;100.00
74834;BME280;63361;52.384;20.930;2023-12-29T11:40:09;99859.34;;;8.37;100.00
74834;BME280;63361;52.384;20.930;2023-12-29T11:42:38;99841.22;;;8.53;100.00
74834;BME280;63361;52.384;20.930;2023-12-29T11:45:32;99848.09;;;8.69;100.00
74834;BME280;63361;52.384;20.930;2023-12-29T11:47:59;99835.59;;;8.84;100.00
74834;BME280;63361;52.384;20.930;2023-12-29T11:50:37;99841.66;;;8.99;100.00
74834;BME280;63361;52.384;20.930;2023-12-29T11:53:04;99840.78;;;9.04;100.00
74834;BME280;63361;52.384;20.930;2023-12-29T11:55:37;99836.03;;;9.20;100.00
74834;BME280;63361;52.384;20.930;2023-12-29T11:58:03;99853.53;;;9.22;100.00
74834;BME280;63361;52.384;20.930;2023-12-29T12:05:45;99849.06;;;9.36;100.00
74834;BME280;63361;52.384;20.930;2023-12-29T12:08:32;99854.28;;;9.28;100.00
74834;BME280;63361;52.384;20.930;2023-12-29T12:13:57;99855.66;;;8.96;100.00
74834;BME280;63361;52.384;20.930;2023-12-29T12:19:08;99826.03;;;8.67;100.00
74834;BME280;63361;52.384;20.930;2023-12-29T12:21:33;99849.97;;;8.69;100.00
74834;BME280;63361;52.384;20.930;2023-12-29T12:24:01;99843.78;;;8.68;100.00
74834;BME280;63361;52.384;20.930;2023-12-29T12:26:30;99845.31;;;8.79;100.00
74834;BME280;63361;52.384;20.930;2023-12-29T12:28:55;99841.78;;;8.84;100.00
74834;BME280;63361;52.384;20.930;2023-12-29T12:31:21;99849.47;;;8.96;100.00
74834;BME280;63361;52.384;20.930;2023-12-29T12:33:56;99853.78;;;8.97;100.00
74834;BME280;63361;52.384;20.930;2023-12-29T12:36:22;99856.38;;;9.07;100.00
74834;BME280;63361;52.384;20.930;2023-12-29T12:38:55;99841.56;;;9.04;100.00
74834;BME280;63361;52.384;20.930;2023-12-29T12:41:25;99859.03;;;9.12;100.00
74834;BME280;63361;52.384;20.930;2023-12-29T12:46:25;99858.13;;;9.22;100.00
74834;BME280;63361;52.384;20.930;2023-12-29T12:48:52;99849.06;;;9.36;100.00
74834;BME280;63361;52.384;20.930;2023-12-29T12:51:19;99841.53;;;9.38;100.00
74834;BME280;63361;52.384;20.930;2023-12-29T12:53:46;99842.59;;;9.37;100.00
74834;BME280;63361;52.384;20.930;2023-12-29T12:56:13;99845.31;;;9.37;100.00
74834;BME280;63361;52.384;20.930;2023-12-29T12:58:39;99843.41;;;9.38;100.00
74834;BME280;63361;52.384;20.930;2023-12-29T13:01:05;99847.03;;;9.28;100.00
74834;BME280;63361;52.384;20.930;2023-12-29T13:03:31;99844.38;;;9.23;100.00